sensor_id;sensor_type;location;lat;lon;timestamp;P1;durP1;ratioP1;P2;durP2;ratioP2
9997;SDS011;5038;53.064;8.624;2023-03-02T00:01:43;44.80;;;36.83;;
9997;SDS011;5038;53.064;8.624;2023-03-02T00:04:15;49.40;;;37.33;;
9997;SDS011;5038;53.064;8.624;2023-03-02T00:06:48;46.60;;;37.03;;
9997;SDS011;5038;53.064;8.624;2023-03-02T00:09:19;43.07;;;36.30;;
9997;SDS011;5038;53.064;8.624;2023-03-02T00:11:47;39.97;;;35.60;;
9997;SDS011;5038;53.064;8.624;2023-03-02T00:14:15;43.53;;;36.20;;
9997;SDS011;5038;53.064;8.624;2023-03-02T00:16:43;42.97;;;36.27;;
9997;SDS011;5038;53.064;8.624;2023-03-02T00:19:11;56.90;;;40.37;;
9997;SDS011;5038;53.064;8.624;2023-03-02T00:21:39;48.53;;;37.30;;
9997;SDS011;5038;53.064;8.624;2023-03-02T00:24:07;45.57;;;36.63;;
9997;SDS011;5038;53.064;8.624;2023-03-02T00:26:37;46.07;;;36.43;;
9997;SDS011;5038;53.064;8.624;2023-03-02T00:29:06;43.57;;;35.57;;
9997;SDS011;5038;53.064;8.624;2023-03-02T00:31:36;41.57;;;34.83;;
9997;SDS011;5038;53.064;8.624;2023-03-02T00:34:04;46.17;;;35.20;;
9997;SDS011;5038;53.064;8.624;2023-03-02T00:36:32;56.10;;;37.70;;
9997;SDS011;5038;53.064;8.624;2023-03-02T00:39:00;56.10;;;37.93;;
9997;SDS011;5038;53.064;8.624;2023-03-02T00:41:29;51.43;;;38.07;;
9997;SDS011;5038;53.064;8.624;2023-03-02T00:43:59;52.47;;;37.70;;
9997;SDS011;5038;53.064;8.624;2023-03-02T00:46:27;51.50;;;39.03;;
9997;SDS011;5038;53.064;8.624;2023-03-02T00:48:56;56.10;;;40.40;;
9997;SDS011;5038;53.064;8.624;2023-03-02T00:51:24;47.67;;;36.80;;
9997;SDS011;5038;53.064;8.624;2023-03-02T00:53:52;53.50;;;38.07;;
9997;SDS011;5038;53.064;8.624;2023-03-02T00:56:20;51.10;;;39.23;;
9997;SDS011;5038;53.064;8.624;2023-03-02T00:58:50;48.30;;;38.43;;
9997;SDS011;5038;53.064;8.624;2023-03-02T01:01:20;48.77;;;36.77;;
9997;SDS011;5038;53.064;8.624;2023-03-02T01:03:51;59.40;;;36.50;;
9997;SDS011;5038;53.064;8.624;2023-03-02T01:06:19;58.07;;;36.93;;
9997;SDS011;5038;53.064;8.624;2023-03-02T01:08:48;56.57;;;39.20;;
9997;SDS011;5038;53.064;8.624;2023-03-02T01:11:17;60.17;;;39.50;;
9997;SDS011;5038;53.064;8.624;2023-03-02T01:13:46;49.60;;;37.17;;
9997;SDS011;5038;53.064;8.624;2023-03-02T01:16:15;61.53;;;36.73;;
9997;SDS011;5038;53.064;8.624;2023-03-02T01:18:45;55.30;;;37.03;;
9997;SDS011;5038;53.064;8.624;2023-03-02T01:21:14;43.77;;;30.37;;
9997;SDS011;5038;53.064;8.624;2023-03-02T01:23:42;53.37;;;36.23;;
9997;SDS011;5038;53.064;8.624;2023-03-02T01:26:10;60.33;;;36.40;;
9997;SDS011;5038;53.064;8.624;2023-03-02T01:28:38;76.83;;;38.83;;
9997;SDS011;5038;53.064;8.624;2023-03-02T01:31:06;91.93;;;40.27;;
9997;SDS011;5038;53.064;8.624;2023-03-02T01:33:35;48.47;;;35.83;;
9997;SDS011;5038;53.064;8.624;2023-03-02T01:36:04;58.23;;;37.23;;
9997;SDS011;5038;53.064;8.624;2023-03-02T01:38:33;45.97;;;34.43;;
9997;SDS011;5038;53.064;8.624;2023-03-02T01:41:02;57.57;;;35.10;;
9997;SDS011;5038;53.064;8.624;2023-03-02T01:43:30;58.53;;;37.43;;
9997;SDS011;5038;53.064;8.624;2023-03-02T01:45:58;63.60;;;35.13;;
9997;SDS011;5038;53.064;8.624;2023-03-02T01:48:44;79.13;;;36.93;;
9997;SDS011;5038;53.064;8.624;2023-03-02T01:51:23;56.07;;;36.87;;
9997;SDS011;5038;53.064;8.624;2023-03-02T01:53:59;52.97;;;35.57;;
9997;SDS011;5038;53.064;8.624;2023-03-02T01:56:29;47.37;;;34.33;;
9997;SDS011;5038;53.064;8.624;2023-03-02T01:59:02;45.63;;;33.40;;
9997;SDS011;5038;53.064;8.624;2023-03-02T02:01:36;42.03;;;34.27;;
9997;SDS011;5038;53.064;8.624;2023-03-02T02:04:06;54.30;;;33.70;;
9997;SDS011;5038;53.064;8.624;2023-03-02T02:06:37;74.20;;;34.13;;
9997;SDS011;5038;53.064;8.624;2023-03-02T02:09:08;76.03;;;35.30;;
9997;SDS011;5038;53.064;8.624;2023-03-02T02:11:40;51.00;;;35.57;;
9997;SDS011;5038;53.064;8.624;2023-03-02T02:14:09;50.27;;;34.03;;
9997;SDS011;5038;53.064;8.624;2023-03-02T02:16:39;36.30;;;31.20;;
9997;SDS011;5038;53.064;8.624;2023-03-02T02:19:10;51.83;;;31.63;;
9997;SDS011;5038;53.064;8.624;2023-03-02T02:21:45;63.67;;;33.93;;
9997;SDS011;5038;53.064;8.624;2023-03-02T02:24:15;60.60;;;32.57;;
9997;SDS011;5038;53.064;8.624;2023-03-02T02:26:51;42.00;;;31.60;;
9997;SDS011;5038;53.064;8.624;2023-03-02T02:29:23;38.47;;;30.93;;
9997;SDS011;5038;53.064;8.624;2023-03-02T02:31:54;41.93;;;30.83;;
9997;SDS011;5038;53.064;8.624;2023-03-02T02:34:28;83.43;;;35.30;;
9997;SDS011;5038;53.064;8.624;2023-03-02T02:36:59;38.30;;;32.50;;
9997;SDS011;5038;53.064;8.624;2023-03-02T02:39:33;98.67;;;35.33;;
9997;SDS011;5038;53.064;8.624;2023-03-02T02:42:06;73.03;;;32.80;;
9997;SDS011;5038;53.064;8.624;2023-03-02T02:44:39;41.60;;;32.30;;
9997;SDS011;5038;53.064;8.624;2023-03-02T02:47:11;61.70;;;33.80;;
9997;SDS011;5038;53.064;8.624;2023-03-02T02:49:42;37.40;;;31.03;;
9997;SDS011;5038;53.064;8.624;2023-03-02T02:52:13;42.23;;;32.17;;
9997;SDS011;5038;53.064;8.624;2023-03-02T02:54:43;38.43;;;28.07;;
9997;SDS011;5038;53.064;8.624;2023-03-02T02:57:15;37.10;;;29.90;;
9997;SDS011;5038;53.064;8.624;2023-03-02T02:59:45;41.37;;;30.97;;
9997;SDS011;5038;53.064;8.624;2023-03-02T03:02:16;45.43;;;29.13;;
9997;SDS011;5038;53.064;8.624;2023-03-02T03:04:46;39.87;;;29.87;;
9997;SDS011;5038;53.064;8.624;2023-03-02T03:07:16;48.70;;;31.87;;
9997;SDS011;5038;53.064;8.624;2023-03-02T03:09:47;46.33;;;31.60;;
9997;SDS011;5038;53.064;8.624;2023-03-02T03:12:24;55.03;;;31.43;;
9997;SDS011;5038;53.064;8.624;2023-03-02T03:14:53;63.97;;;32.50;;
9997;SDS011;5038;53.064;8.624;2023-03-02T03:17:21;38.90;;;30.80;;
9997;SDS011;5038;53.064;8.624;2023-03-02T03:19:55;54.40;;;31.93;;
9997;SDS011;5038;53.064;8.624;2023-03-02T03:22:34;48.00;;;33.30;;
9997;SDS011;5038;53.064;8.624;2023-03-02T03:25:04;37.87;;;25.80;;
9997;SDS011;5038;53.064;8.624;2023-03-02T03:27:35;43.90;;;32.60;;
9997;SDS011;5038;53.064;8.624;2023-03-02T03:30:04;43.57;;;33.43;;
9997;SDS011;5038;53.064;8.624;2023-03-02T03:32:34;49.73;;;33.43;;
9997;SDS011;5038;53.064;8.624;2023-03-02T03:35:03;45.70;;;28.90;;
9997;SDS011;5038;53.064;8.624;2023-03-02T03:37:34;64.70;;;32.37;;
9997;SDS011;5038;53.064;8.624;2023-03-02T03:40:04;48.63;;;34.00;;
9997;SDS011;5038;53.064;8.624;2023-03-02T03:42:37;39.60;;;32.03;;
9997;SDS011;5038;53.064;8.624;2023-03-02T03:45:06;41.80;;;32.33;;
9997;SDS011;5038;53.064;8.624;2023-03-02T03:47:36;46.33;;;32.40;;
9997;SDS011;5038;53.064;8.624;2023-03-02T03:50:06;41.77;;;29.77;;
9997;SDS011;5038;53.064;8.624;2023-03-02T03:52:36;46.07;;;30.20;;
9997;SDS011;5038;53.064;8.624;2023-03-02T03:55:12;40.10;;;28.03;;
9997;SDS011;5038;53.064;8.624;2023-03-02T03:57:44;53.60;;;33.63;;
9997;SDS011;5038;53.064;8.624;2023-03-02T04:00:14;87.13;;;50.10;;
9997;SDS011;5038;53.064;8.624;2023-03-02T04:02:55;79.97;;;49.57;;
9997;SDS011;5038;53.064;8.624;2023-03-02T04:05:25;66.30;;;41.03;;
9997;SDS011;5038;53.064;8.624;2023-03-02T04:07:56;62.17;;;36.87;;
9997;SDS011;5038;53.064;8.624;2023-03-02T04:10:28;73.53;;;36.00;;
9997;SDS011;5038;53.064;8.624;2023-03-02T04:12:58;48.17;;;28.77;;
9997;SDS011;5038;53.064;8.624;2023-03-02T04:15:27;47.33;;;26.90;;
9997;SDS011;5038;53.064;8.624;2023-03-02T04:17:58;36.40;;;24.90;;
9997;SDS011;5038;53.064;8.624;2023-03-02T04:20:26;33.10;;;26.37;;
9997;SDS011;5038;53.064;8.624;2023-03-02T04:22:55;44.03;;;28.00;;
9997;SDS011;5038;53.064;8.624;2023-03-02T04:25:25;37.70;;;27.63;;
9997;SDS011;5038;53.064;8.624;2023-03-02T04:28:01;34.20;;;27.90;;
9997;SDS011;5038;53.064;8.624;2023-03-02T04:30:34;35.97;;;25.70;;
9997;SDS011;5038;53.064;8.624;2023-03-02T04:33:02;61.93;;;27.30;;
9997;SDS011;5038;53.064;8.624;2023-03-02T04:35:32;51.77;;;28.23;;
9997;SDS011;5038;53.064;8.624;2023-03-02T04:38:01;36.80;;;28.73;;
9997;SDS011;5038;53.064;8.624;2023-03-02T04:40:30;38.63;;;25.57;;
9997;SDS011;5038;53.064;8.624;2023-03-02T04:42:58;42.27;;;28.10;;
9997;SDS011;5038;53.064;8.624;2023-03-02T04:45:27;56.00;;;27.53;;
9997;SDS011;5038;53.064;8.624;2023-03-02T04:47:55;86.83;;;29.67;;
9997;SDS011;5038;53.064;8.624;2023-03-02T04:50:24;47.30;;;25.93;;
9997;SDS011;5038;53.064;8.624;2023-03-02T04:52:52;36.77;;;24.63;;
9997;SDS011;5038;53.064;8.624;2023-03-02T04:55:21;39.13;;;24.40;;
9997;SDS011;5038;53.064;8.624;2023-03-02T04:57:50;32.73;;;23.63;;
9997;SDS011;5038;53.064;8.624;2023-03-02T05:00:19;39.43;;;25.93;;
9997;SDS011;5038;53.064;8.624;2023-03-02T05:02:48;48.43;;;25.97;;
9997;SDS011;5038;53.064;8.624;2023-03-02T05:05:17;34.53;;;26.07;;
9997;SDS011;5038;53.064;8.624;2023-03-02T05:07:47;46.37;;;26.70;;
9997;SDS011;5038;53.064;8.624;2023-03-02T05:10:16;60.57;;;27.20;;
9997;SDS011;5038;53.064;8.624;2023-03-02T05:12:47;46.93;;;25.90;;
9997;SDS011;5038;53.064;8.624;2023-03-02T05:15:24;40.47;;;24.83;;
9997;SDS011;5038;53.064;8.624;2023-03-02T05:17:55;34.77;;;24.23;;
9997;SDS011;5038;53.064;8.624;2023-03-02T05:20:24;38.23;;;24.20;;
9997;SDS011;5038;53.064;8.624;2023-03-02T05:22:55;44.27;;;26.03;;
9997;SDS011;5038;53.064;8.624;2023-03-02T05:25:25;69.33;;;28.77;;
9997;SDS011;5038;53.064;8.624;2023-03-02T05:27:55;35.77;;;25.10;;
9997;SDS011;5038;53.064;8.624;2023-03-02T05:30:24;70.63;;;26.67;;
9997;SDS011;5038;53.064;8.624;2023-03-02T05:32:52;45.60;;;24.97;;
9997;SDS011;5038;53.064;8.624;2023-03-02T05:35:22;53.00;;;25.00;;
9997;SDS011;5038;53.064;8.624;2023-03-02T05:37:51;44.00;;;25.83;;
9997;SDS011;5038;53.064;8.624;2023-03-02T05:40:19;47.00;;;26.00;;
9997;SDS011;5038;53.064;8.624;2023-03-02T05:42:47;48.93;;;26.80;;
9997;SDS011;5038;53.064;8.624;2023-03-02T05:45:17;40.10;;;26.83;;
9997;SDS011;5038;53.064;8.624;2023-03-02T05:47:46;44.17;;;24.93;;
9997;SDS011;5038;53.064;8.624;2023-03-02T05:50:15;50.03;;;24.90;;
9997;SDS011;5038;53.064;8.624;2023-03-02T05:52:44;64.57;;;29.27;;
9997;SDS011;5038;53.064;8.624;2023-03-02T05:55:13;40.00;;;26.20;;
9997;SDS011;5038;53.064;8.624;2023-03-02T05:57:43;54.47;;;25.90;;
9997;SDS011;5038;53.064;8.624;2023-03-02T06:00:12;43.47;;;26.57;;
9997;SDS011;5038;53.064;8.624;2023-03-02T06:02:41;43.00;;;23.80;;
9997;SDS011;5038;53.064;8.624;2023-03-02T06:05:10;43.73;;;28.33;;
9997;SDS011;5038;53.064;8.624;2023-03-02T06:07:39;42.70;;;25.50;;
9997;SDS011;5038;53.064;8.624;2023-03-02T06:10:10;40.00;;;25.67;;
9997;SDS011;5038;53.064;8.624;2023-03-02T06:12:39;34.50;;;24.83;;
9997;SDS011;5038;53.064;8.624;2023-03-02T06:15:08;50.77;;;25.93;;
9997;SDS011;5038;53.064;8.624;2023-03-02T06:17:36;35.03;;;24.43;;
9997;SDS011;5038;53.064;8.624;2023-03-02T06:20:05;32.67;;;23.67;;
9997;SDS011;5038;53.064;8.624;2023-03-02T06:22:37;34.63;;;25.30;;
9997;SDS011;5038;53.064;8.624;2023-03-02T06:25:07;64.83;;;28.70;;
9997;SDS011;5038;53.064;8.624;2023-03-02T06:27:38;52.57;;;26.33;;
9997;SDS011;5038;53.064;8.624;2023-03-02T06:30:07;55.33;;;26.80;;
9997;SDS011;5038;53.064;8.624;2023-03-02T06:32:39;40.77;;;23.33;;
9997;SDS011;5038;53.064;8.624;2023-03-02T06:35:08;38.10;;;25.07;;
9997;SDS011;5038;53.064;8.624;2023-03-02T06:37:37;36.23;;;24.87;;
9997;SDS011;5038;53.064;8.624;2023-03-02T06:40:09;41.30;;;24.13;;
9997;SDS011;5038;53.064;8.624;2023-03-02T06:42:41;49.73;;;26.23;;
9997;SDS011;5038;53.064;8.624;2023-03-02T06:45:09;93.00;;;28.07;;
9997;SDS011;5038;53.064;8.624;2023-03-02T06:47:37;39.23;;;23.27;;
9997;SDS011;5038;53.064;8.624;2023-03-02T06:50:06;42.90;;;26.80;;
9997;SDS011;5038;53.064;8.624;2023-03-02T06:52:35;36.30;;;24.63;;
9997;SDS011;5038;53.064;8.624;2023-03-02T06:55:03;39.27;;;22.93;;
9997;SDS011;5038;53.064;8.624;2023-03-02T06:57:32;33.47;;;24.00;;
9997;SDS011;5038;53.064;8.624;2023-03-02T07:00:02;40.17;;;24.20;;
9997;SDS011;5038;53.064;8.624;2023-03-02T07:02:35;36.87;;;22.77;;
9997;SDS011;5038;53.064;8.624;2023-03-02T07:05:03;52.63;;;22.43;;
9997;SDS011;5038;53.064;8.624;2023-03-02T07:07:33;51.63;;;22.93;;
9997;SDS011;5038;53.064;8.624;2023-03-02T07:10:01;33.17;;;22.87;;
9997;SDS011;5038;53.064;8.624;2023-03-02T07:12:29;43.63;;;22.20;;
9997;SDS011;5038;53.064;8.624;2023-03-02T07:14:57;50.67;;;21.93;;
9997;SDS011;5038;53.064;8.624;2023-03-02T07:17:27;53.67;;;22.90;;
9997;SDS011;5038;53.064;8.624;2023-03-02T07:19:55;64.37;;;25.37;;
9997;SDS011;5038;53.064;8.624;2023-03-02T07:22:23;47.33;;;22.13;;
9997;SDS011;5038;53.064;8.624;2023-03-02T07:24:51;40.20;;;23.23;;
9997;SDS011;5038;53.064;8.624;2023-03-02T07:27:19;36.63;;;23.20;;
9997;SDS011;5038;53.064;8.624;2023-03-02T07:29:47;47.23;;;25.60;;
9997;SDS011;5038;53.064;8.624;2023-03-02T07:32:15;45.70;;;24.40;;
9997;SDS011;5038;53.064;8.624;2023-03-02T07:34:45;41.47;;;23.33;;
9997;SDS011;5038;53.064;8.624;2023-03-02T07:37:13;46.10;;;24.77;;
9997;SDS011;5038;53.064;8.624;2023-03-02T07:39:41;35.73;;;23.00;;
9997;SDS011;5038;53.064;8.624;2023-03-02T07:42:09;43.07;;;23.30;;
9997;SDS011;5038;53.064;8.624;2023-03-02T07:44:41;43.97;;;23.30;;
9997;SDS011;5038;53.064;8.624;2023-03-02T07:47:09;63.00;;;24.20;;
9997;SDS011;5038;53.064;8.624;2023-03-02T07:49:37;93.30;;;26.90;;
9997;SDS011;5038;53.064;8.624;2023-03-02T07:52:07;44.27;;;22.93;;
9997;SDS011;5038;53.064;8.624;2023-03-02T07:54:35;39.27;;;24.27;;
9997;SDS011;5038;53.064;8.624;2023-03-02T07:57:03;37.10;;;22.20;;
9997;SDS011;5038;53.064;8.624;2023-03-02T07:59:31;85.33;;;25.70;;
9997;SDS011;5038;53.064;8.624;2023-03-02T08:01:59;36.87;;;22.83;;
9997;SDS011;5038;53.064;8.624;2023-03-02T08:04:27;46.67;;;21.93;;
9997;SDS011;5038;53.064;8.624;2023-03-02T08:06:55;41.10;;;21.63;;
9997;SDS011;5038;53.064;8.624;2023-03-02T08:09:24;34.30;;;20.73;;
9997;SDS011;5038;53.064;8.624;2023-03-02T08:11:52;59.07;;;21.90;;
9997;SDS011;5038;53.064;8.624;2023-03-02T08:14:21;37.10;;;21.50;;
9997;SDS011;5038;53.064;8.624;2023-03-02T08:16:49;43.60;;;22.53;;
9997;SDS011;5038;53.064;8.624;2023-03-02T08:19:18;42.90;;;22.67;;
9997;SDS011;5038;53.064;8.624;2023-03-02T08:21:46;48.47;;;21.73;;
9997;SDS011;5038;53.064;8.624;2023-03-02T08:24:14;36.97;;;23.60;;
9997;SDS011;5038;53.064;8.624;2023-03-02T08:26:44;48.17;;;23.43;;
9997;SDS011;5038;53.064;8.624;2023-03-02T08:29:12;37.93;;;23.40;;
9997;SDS011;5038;53.064;8.624;2023-03-02T08:31:40;36.37;;;23.03;;
9997;SDS011;5038;53.064;8.624;2023-03-02T08:34:08;35.03;;;21.37;;
9997;SDS011;5038;53.064;8.624;2023-03-02T08:36:37;35.43;;;24.47;;
9997;SDS011;5038;53.064;8.624;2023-03-02T08:39:06;51.63;;;24.17;;
9997;SDS011;5038;53.064;8.624;2023-03-02T08:41:34;36.73;;;21.67;;
9997;SDS011;5038;53.064;8.624;2023-03-02T08:44:03;39.20;;;21.73;;
9997;SDS011;5038;53.064;8.624;2023-03-02T08:46:32;39.83;;;23.50;;
9997;SDS011;5038;53.064;8.624;2023-03-02T08:49:00;37.13;;;21.80;;
9997;SDS011;5038;53.064;8.624;2023-03-02T08:51:29;48.50;;;24.10;;
9997;SDS011;5038;53.064;8.624;2023-03-02T08:53:57;56.70;;;24.33;;
9997;SDS011;5038;53.064;8.624;2023-03-02T08:56:26;31.40;;;25.20;;
9997;SDS011;5038;53.064;8.624;2023-03-02T08:58:56;44.23;;;24.20;;
9997;SDS011;5038;53.064;8.624;2023-03-02T09:01:28;54.70;;;24.10;;
9997;SDS011;5038;53.064;8.624;2023-03-02T09:03:58;43.87;;;24.53;;
9997;SDS011;5038;53.064;8.624;2023-03-02T09:06:27;64.50;;;22.83;;
9997;SDS011;5038;53.064;8.624;2023-03-02T09:08:57;42.13;;;23.00;;
9997;SDS011;5038;53.064;8.624;2023-03-02T09:11:25;48.73;;;24.27;;
9997;SDS011;5038;53.064;8.624;2023-03-02T09:13:53;36.27;;;21.90;;
9997;SDS011;5038;53.064;8.624;2023-03-02T09:16:21;30.57;;;21.90;;
9997;SDS011;5038;53.064;8.624;2023-03-02T09:18:52;41.50;;;22.30;;
9997;SDS011;5038;53.064;8.624;2023-03-02T09:21:21;31.23;;;23.93;;
9997;SDS011;5038;53.064;8.624;2023-03-02T09:23:49;38.57;;;22.27;;
9997;SDS011;5038;53.064;8.624;2023-03-02T09:26:19;32.33;;;22.93;;
9997;SDS011;5038;53.064;8.624;2023-03-02T09:28:47;32.43;;;22.33;;
9997;SDS011;5038;53.064;8.624;2023-03-02T09:31:15;51.67;;;25.33;;
9997;SDS011;5038;53.064;8.624;2023-03-02T09:33:43;49.73;;;24.67;;
9997;SDS011;5038;53.064;8.624;2023-03-02T09:36:14;39.40;;;25.43;;
9997;SDS011;5038;53.064;8.624;2023-03-02T09:38:47;33.70;;;24.83;;
9997;SDS011;5038;53.064;8.624;2023-03-02T09:41:25;47.33;;;24.87;;
9997;SDS011;5038;53.064;8.624;2023-03-02T09:44:19;40.63;;;22.90;;
9997;SDS011;5038;53.064;8.624;2023-03-02T09:46:59;32.73;;;23.27;;
9997;SDS011;5038;53.064;8.624;2023-03-02T09:49:32;33.50;;;23.47;;
9997;SDS011;5038;53.064;8.624;2023-03-02T09:52:18;43.63;;;22.53;;
9997;SDS011;5038;53.064;8.624;2023-03-02T09:54:55;56.00;;;24.73;;
9997;SDS011;5038;53.064;8.624;2023-03-02T09:57:28;36.10;;;23.97;;
9997;SDS011;5038;53.064;8.624;2023-03-02T10:00:00;32.93;;;23.53;;
9997;SDS011;5038;53.064;8.624;2023-03-02T10:02:46;35.17;;;24.20;;
9997;SDS011;5038;53.064;8.624;2023-03-02T10:05:17;38.43;;;24.60;;
9997;SDS011;5038;53.064;8.624;2023-03-02T10:07:49;33.87;;;24.27;;
9997;SDS011;5038;53.064;8.624;2023-03-02T10:10:22;39.23;;;25.43;;
9997;SDS011;5038;53.064;8.624;2023-03-02T10:12:59;43.23;;;25.67;;
9997;SDS011;5038;53.064;8.624;2023-03-02T10:15:35;37.97;;;24.70;;
9997;SDS011;5038;53.064;8.624;2023-03-02T10:18:10;33.10;;;25.20;;
9997;SDS011;5038;53.064;8.624;2023-03-02T10:20:46;33.60;;;23.80;;
9997;SDS011;5038;53.064;8.624;2023-03-02T10:23:29;43.63;;;26.23;;
9997;SDS011;5038;53.064;8.624;2023-03-02T10:26:08;40.90;;;26.90;;
9997;SDS011;5038;53.064;8.624;2023-03-02T10:28:43;33.63;;;24.90;;
9997;SDS011;5038;53.064;8.624;2023-03-02T10:31:16;39.50;;;28.23;;
9997;SDS011;5038;53.064;8.624;2023-03-02T10:33:51;38.67;;;27.23;;
9997;SDS011;5038;53.064;8.624;2023-03-02T10:36:20;44.73;;;26.97;;
9997;SDS011;5038;53.064;8.624;2023-03-02T10:38:52;38.13;;;27.17;;
9997;SDS011;5038;53.064;8.624;2023-03-02T10:41:24;40.90;;;27.70;;
9997;SDS011;5038;53.064;8.624;2023-03-02T10:43:58;42.37;;;26.40;;
9997;SDS011;5038;53.064;8.624;2023-03-02T10:46:37;45.03;;;27.27;;
9997;SDS011;5038;53.064;8.624;2023-03-02T10:49:21;33.40;;;24.40;;
9997;SDS011;5038;53.064;8.624;2023-03-02T10:51:59;37.50;;;26.43;;
9997;SDS011;5038;53.064;8.624;2023-03-02T10:54:32;42.70;;;28.23;;
9997;SDS011;5038;53.064;8.624;2023-03-02T10:57:02;41.53;;;27.20;;
9997;SDS011;5038;53.064;8.624;2023-03-02T10:59:40;38.63;;;26.57;;
9997;SDS011;5038;53.064;8.624;2023-03-02T11:02:19;36.87;;;25.00;;
9997;SDS011;5038;53.064;8.624;2023-03-02T11:04:52;34.30;;;23.33;;
9997;SDS011;5038;53.064;8.624;2023-03-02T11:07:24;33.90;;;25.70;;
9997;SDS011;5038;53.064;8.624;2023-03-02T11:09:59;39.67;;;25.97;;
9997;SDS011;5038;53.064;8.624;2023-03-02T11:12:29;37.30;;;25.03;;
9997;SDS011;5038;53.064;8.624;2023-03-02T11:15:13;34.07;;;25.53;;
9997;SDS011;5038;53.064;8.624;2023-03-02T11:17:49;35.23;;;24.30;;
9997;SDS011;5038;53.064;8.624;2023-03-02T11:20:28;50.83;;;24.83;;
9997;SDS011;5038;53.064;8.624;2023-03-02T11:23:12;36.10;;;24.77;;
9997;SDS011;5038;53.064;8.624;2023-03-02T11:25:46;30.57;;;23.33;;
9997;SDS011;5038;53.064;8.624;2023-03-02T11:28:31;41.23;;;24.00;;
9997;SDS011;5038;53.064;8.624;2023-03-02T11:31:05;32.53;;;24.23;;
9997;SDS011;5038;53.064;8.624;2023-03-02T11:33:41;34.73;;;25.03;;
9997;SDS011;5038;53.064;8.624;2023-03-02T11:36:17;35.57;;;24.80;;
9997;SDS011;5038;53.064;8.624;2023-03-02T11:38:51;30.97;;;24.10;;
9997;SDS011;5038;53.064;8.624;2023-03-02T11:41:27;30.20;;;23.00;;
9997;SDS011;5038;53.064;8.624;2023-03-02T11:43:57;34.70;;;24.70;;
9997;SDS011;5038;53.064;8.624;2023-03-02T11:46:28;32.37;;;23.93;;
9997;SDS011;5038;53.064;8.624;2023-03-02T11:49:00;30.93;;;24.53;;
9997;SDS011;5038;53.064;8.624;2023-03-02T11:51:32;57.97;;;37.20;;
9997;SDS011;5038;53.064;8.624;2023-03-02T11:54:05;116.93;;;61.90;;
9997;SDS011;5038;53.064;8.624;2023-03-02T11:56:43;113.73;;;71.93;;
9997;SDS011;5038;53.064;8.624;2023-03-02T11:59:13;124.03;;;68.93;;
9997;SDS011;5038;53.064;8.624;2023-03-02T12:01:46;105.33;;;64.70;;
9997;SDS011;5038;53.064;8.624;2023-03-02T12:04:24;106.23;;;65.43;;
9997;SDS011;5038;53.064;8.624;2023-03-02T12:06:54;97.80;;;60.90;;
9997;SDS011;5038;53.064;8.624;2023-03-02T12:09:30;100.67;;;60.03;;
9997;SDS011;5038;53.064;8.624;2023-03-02T12:12:14;102.97;;;61.43;;
9997;SDS011;5038;53.064;8.624;2023-03-02T12:14:53;100.00;;;61.73;;
9997;SDS011;5038;53.064;8.624;2023-03-02T12:17:28;112.47;;;70.40;;
9997;SDS011;5038;53.064;8.624;2023-03-02T12:23:04;97.63;;;62.53;;
9997;SDS011;5038;53.064;8.624;2023-03-02T12:25:38;98.43;;;65.70;;
9997;SDS011;5038;53.064;8.624;2023-03-02T12:28:26;107.73;;;70.77;;
9997;SDS011;5038;53.064;8.624;2023-03-02T12:31:00;104.80;;;69.90;;
9997;SDS011;5038;53.064;8.624;2023-03-02T12:33:30;105.33;;;69.37;;
9997;SDS011;5038;53.064;8.624;2023-03-02T12:36:02;88.00;;;65.50;;
9997;SDS011;5038;53.064;8.624;2023-03-02T12:38:36;96.63;;;65.57;;
9997;SDS011;5038;53.064;8.624;2023-03-02T12:41:13;83.60;;;62.83;;
9997;SDS011;5038;53.064;8.624;2023-03-02T12:43:57;90.27;;;63.87;;
9997;SDS011;5038;53.064;8.624;2023-03-02T12:46:33;86.13;;;62.53;;
9997;SDS011;5038;53.064;8.624;2023-03-02T12:49:07;78.00;;;57.60;;
9997;SDS011;5038;53.064;8.624;2023-03-02T12:51:47;83.33;;;59.50;;
9997;SDS011;5038;53.064;8.624;2023-03-02T12:54:19;79.80;;;57.47;;
9997;SDS011;5038;53.064;8.624;2023-03-02T12:56:48;75.97;;;55.57;;
9997;SDS011;5038;53.064;8.624;2023-03-02T12:59:23;79.03;;;59.20;;
9997;SDS011;5038;53.064;8.624;2023-03-02T13:02:02;80.47;;;60.13;;
9997;SDS011;5038;53.064;8.624;2023-03-02T13:04:32;83.13;;;60.20;;
9997;SDS011;5038;53.064;8.624;2023-03-02T13:07:00;79.90;;;59.00;;
9997;SDS011;5038;53.064;8.624;2023-03-02T13:09:28;88.40;;;65.03;;
9997;SDS011;5038;53.064;8.624;2023-03-02T13:11:56;89.27;;;62.90;;
9997;SDS011;5038;53.064;8.624;2023-03-02T13:14:26;95.93;;;70.93;;
9997;SDS011;5038;53.064;8.624;2023-03-02T13:16:56;94.67;;;73.67;;
9997;SDS011;5038;53.064;8.624;2023-03-02T13:19:28;88.13;;;68.03;;
9997;SDS011;5038;53.064;8.624;2023-03-02T13:21:57;86.80;;;65.60;;
9997;SDS011;5038;53.064;8.624;2023-03-02T13:24:31;87.70;;;71.27;;
9997;SDS011;5038;53.064;8.624;2023-03-02T13:27:03;101.00;;;79.17;;
9997;SDS011;5038;53.064;8.624;2023-03-02T13:29:34;83.53;;;67.53;;
9997;SDS011;5038;53.064;8.624;2023-03-02T13:32:19;85.23;;;66.50;;
9997;SDS011;5038;53.064;8.624;2023-03-02T13:34:50;96.60;;;69.63;;
9997;SDS011;5038;53.064;8.624;2023-03-02T13:37:21;86.90;;;69.77;;
9997;SDS011;5038;53.064;8.624;2023-03-02T13:39:58;86.17;;;68.43;;
9997;SDS011;5038;53.064;8.624;2023-03-02T13:42:32;90.27;;;72.03;;
9997;SDS011;5038;53.064;8.624;2023-03-02T13:47:53;88.60;;;71.43;;
9997;SDS011;5038;53.064;8.624;2023-03-02T13:50:23;92.80;;;76.40;;
9997;SDS011;5038;53.064;8.624;2023-03-02T13:52:53;94.03;;;76.90;;
9997;SDS011;5038;53.064;8.624;2023-03-02T13:55:23;96.10;;;79.33;;
9997;SDS011;5038;53.064;8.624;2023-03-02T13:57:52;87.17;;;70.80;;
9997;SDS011;5038;53.064;8.624;2023-03-02T14:00:24;85.13;;;69.07;;
9997;SDS011;5038;53.064;8.624;2023-03-02T14:02:57;80.43;;;71.40;;
9997;SDS011;5038;53.064;8.624;2023-03-02T14:05:25;75.17;;;65.93;;
9997;SDS011;5038;53.064;8.624;2023-03-02T14:07:58;72.20;;;63.53;;
9997;SDS011;5038;53.064;8.624;2023-03-02T14:10:28;70.50;;;60.90;;
9997;SDS011;5038;53.064;8.624;2023-03-02T14:12:57;67.20;;;60.07;;
9997;SDS011;5038;53.064;8.624;2023-03-02T14:15:31;66.50;;;59.10;;
9997;SDS011;5038;53.064;8.624;2023-03-02T14:18:04;61.03;;;53.10;;
9997;SDS011;5038;53.064;8.624;2023-03-02T14:20:42;63.10;;;55.60;;
9997;SDS011;5038;53.064;8.624;2023-03-02T14:23:10;55.30;;;48.53;;
9997;SDS011;5038;53.064;8.624;2023-03-02T14:25:38;53.57;;;47.87;;
9997;SDS011;5038;53.064;8.624;2023-03-02T14:28:07;49.27;;;43.97;;
9997;SDS011;5038;53.064;8.624;2023-03-02T14:30:38;48.47;;;43.30;;
9997;SDS011;5038;53.064;8.624;2023-03-02T14:33:10;49.03;;;43.73;;
9997;SDS011;5038;53.064;8.624;2023-03-02T14:35:43;48.30;;;42.67;;
9997;SDS011;5038;53.064;8.624;2023-03-02T14:38:11;53.03;;;46.37;;
9997;SDS011;5038;53.064;8.624;2023-03-02T14:40:39;49.40;;;44.00;;
9997;SDS011;5038;53.064;8.624;2023-03-02T14:43:08;56.17;;;48.60;;
9997;SDS011;5038;53.064;8.624;2023-03-02T14:45:36;59.10;;;51.93;;
9997;SDS011;5038;53.064;8.624;2023-03-02T14:48:06;60.73;;;53.30;;
9997;SDS011;5038;53.064;8.624;2023-03-02T14:50:35;65.37;;;55.50;;
9997;SDS011;5038;53.064;8.624;2023-03-02T14:53:07;59.00;;;52.63;;
9997;SDS011;5038;53.064;8.624;2023-03-02T14:55:41;54.63;;;48.90;;
9997;SDS011;5038;53.064;8.624;2023-03-02T14:58:11;58.27;;;46.80;;
9997;SDS011;5038;53.064;8.624;2023-03-02T15:00:42;51.83;;;43.90;;
9997;SDS011;5038;53.064;8.624;2023-03-02T15:03:12;52.83;;;46.50;;
9997;SDS011;5038;53.064;8.624;2023-03-02T15:05:42;68.40;;;61.20;;
9997;SDS011;5038;53.064;8.624;2023-03-02T15:08:26;68.10;;;58.90;;
9997;SDS011;5038;53.064;8.624;2023-03-02T15:10:54;65.23;;;58.10;;
9997;SDS011;5038;53.064;8.624;2023-03-02T15:13:22;55.40;;;49.50;;
9997;SDS011;5038;53.064;8.624;2023-03-02T15:15:51;37.77;;;33.77;;
9997;SDS011;5038;53.064;8.624;2023-03-02T15:18:21;44.90;;;40.00;;